createdAt,value
2023-01-23T00:00:17.242Z,14.37
2023-01-23T00:05:21.558Z,13.90
2023-01-23T00:10:24.553Z,14.70
2023-01-23T00:15:28.293Z,14.00
2023-01-23T00:20:32.621Z,13.70
2023-01-23T00:25:36.341Z,15.60
2023-01-23T00:30:39.293Z,14.60
2023-01-23T00:35:43.589Z,15.93
2023-01-23T00:40:46.474Z,14.10
2023-01-23T00:45:49.499Z,14.63
2023-01-23T00:50:54.301Z,15.50
2023-01-23T00:55:57.366Z,15.67
2023-01-23T01:01:00.553Z,14.17
2023-01-23T01:06:05.472Z,14.80
2023-01-23T01:11:09.080Z,16.57
2023-01-23T01:16:12.647Z,14.70
2023-01-23T01:21:17.407Z,14.47
2023-01-23T01:26:22.951Z,15.30
2023-01-23T01:31:26.845Z,14.13
2023-01-23T01:36:32.177Z,15.10
2023-01-23T01:41:35.765Z,14.60
2023-01-23T01:46:38.739Z,15.43
2023-01-23T01:51:47.094Z,13.40
2023-01-23T01:56:54.587Z,14.63
2023-01-23T02:02:05.183Z,14.60
2023-01-23T02:07:15.774Z,14.77
2023-01-23T02:12:18.708Z,15.80
2023-01-23T02:17:21.957Z,15.07
2023-01-23T02:22:35.299Z,15.40
2023-01-23T02:27:40.972Z,15.50
2023-01-23T02:32:43.874Z,14.93
2023-01-23T02:37:48.562Z,13.93
2023-01-23T02:42:55.442Z,12.83
2023-01-23T02:48:01.462Z,14.80
2023-01-23T02:53:05.261Z,14.50
2023-01-23T02:58:27.695Z,14.50
2023-01-23T03:03:31.662Z,13.77
2023-01-23T03:08:36.850Z,15.23
2023-01-23T03:13:41.747Z,14.10
2023-01-23T03:18:53.934Z,14.80
2023-01-23T03:23:57.881Z,15.80
2023-01-23T03:29:19.754Z,14.10
2023-01-23T03:34:22.922Z,14.63
2023-01-23T03:39:43.934Z,14.37
2023-01-23T03:44:48.821Z,14.73
2023-01-23T03:49:52.198Z,14.17
2023-01-23T03:54:55.490Z,15.63
2023-01-23T03:59:59.859Z,15.53
2023-01-23T04:05:22.696Z,13.30
2023-01-23T04:10:25.747Z,14.33
2023-01-23T04:15:34.344Z,14.97
2023-01-23T04:20:40.740Z,13.20
2023-01-23T04:25:43.703Z,15.00
2023-01-23T04:30:52.247Z,14.40
2023-01-23T04:36:04.941Z,14.00
2023-01-23T04:41:07.920Z,13.27
2023-01-23T04:46:15.315Z,13.57
2023-01-23T04:51:21.479Z,13.10
2023-01-23T04:56:24.502Z,13.87
2023-01-23T05:01:29.085Z,13.77
2023-01-23T05:06:37.649Z,14.77
2023-01-23T05:11:42.055Z,12.70
2023-01-23T05:16:49.082Z,13.20
2023-01-23T05:22:01.436Z,13.33
2023-01-23T05:27:05.983Z,13.47
2023-01-23T05:32:14.798Z,12.83
2023-01-23T05:37:20.565Z,14.13
2023-01-23T05:42:27.628Z,15.40
2023-01-23T05:48:00.835Z,16.50
2023-01-23T05:53:04.293Z,14.80
2023-01-23T05:58:07.565Z,13.50
2023-01-23T06:03:30.113Z,15.87
2023-01-23T06:08:45.446Z,15.53
2023-01-23T06:13:48.367Z,15.80
2023-01-23T06:18:52.999Z,16.37
2023-01-23T06:23:56.336Z,17.50
2023-01-23T06:28:59.621Z,17.00
2023-01-23T06:34:04.017Z,15.77
2023-01-23T06:39:17.008Z,16.13
2023-01-23T06:44:20.218Z,17.60
2023-01-23T06:49:24.648Z,19.30
2023-01-23T06:54:28.853Z,17.33
2023-01-23T06:59:37.573Z,15.80
2023-01-23T07:04:45.691Z,15.63
2023-01-23T07:09:49.221Z,15.43
2023-01-23T07:14:56.023Z,15.90
2023-01-23T07:20:07.124Z,14.93
2023-01-23T07:25:16.536Z,16.03
2023-01-23T07:30:20.524Z,16.13
2023-01-23T07:35:25.062Z,15.27
2023-01-23T07:40:30.676Z,15.00
2023-01-23T07:45:33.603Z,17.23
2023-01-23T07:50:38.148Z,15.10
2023-01-23T07:55:41.062Z,16.17
2023-01-23T08:00:44.037Z,16.40
2023-01-23T08:05:50.884Z,16.37
2023-01-23T08:10:53.743Z,17.30
2023-01-23T08:15:58.820Z,16.90
2023-01-23T08:21:04.176Z,18.37
2023-01-23T08:26:08.780Z,18.00
2023-01-23T08:31:13.229Z,17.17
2023-01-23T08:36:17.541Z,18.90
2023-01-23T08:41:20.862Z,18.77
2023-01-23T08:46:24.010Z,19.40
2023-01-23T08:51:28.354Z,19.60
2023-01-23T08:56:31.320Z,20.93
2023-01-23T09:01:34.245Z,20.37
2023-01-23T09:06:38.975Z,17.17
2023-01-23T09:11:41.900Z,20.53
2023-01-23T09:16:44.847Z,18.97
2023-01-23T09:21:49.264Z,20.00
2023-01-23T09:26:52.213Z,18.03
2023-01-23T09:31:55.139Z,18.30
2023-01-23T09:36:59.406Z,17.83
2023-01-23T09:42:08.495Z,17.93
2023-01-23T09:47:16.414Z,18.37
2023-01-23T09:52:23.415Z,19.00
2023-01-23T09:57:34.321Z,21.37
2023-01-23T10:02:37.307Z,20.57
2023-01-23T10:07:53.275Z,20.60
2023-01-23T10:13:05.933Z,19.73
2023-01-23T10:18:24.269Z,18.20
2023-01-23T10:23:48.176Z,17.20
2023-01-23T10:28:55.770Z,17.20
2023-01-23T10:34:08.002Z,18.70
2023-01-23T10:39:17.249Z,22.60
2023-01-23T10:44:22.536Z,18.60
2023-01-23T10:49:30.702Z,19.97
2023-01-23T10:54:46.699Z,17.63
2023-01-23T10:59:56.928Z,18.47
2023-01-23T11:05:00.764Z,19.70
2023-01-23T11:10:23.158Z,17.73
2023-01-23T11:15:28.557Z,18.83
2023-01-23T11:20:33.790Z,18.63
2023-01-23T11:25:40.808Z,19.43
2023-01-23T11:30:47.634Z,19.10
2023-01-23T11:36:01.764Z,17.33
2023-01-23T11:41:08.673Z,18.87
2023-01-23T11:46:28.392Z,18.63
2023-01-23T11:51:38.963Z,18.63
2023-01-23T11:56:56.479Z,19.80
2023-01-23T12:02:18.961Z,19.47
2023-01-23T12:07:24.152Z,15.77
2023-01-23T12:12:51.327Z,16.00
2023-01-23T12:18:04.815Z,15.93
2023-01-23T12:23:38.826Z,16.87
2023-01-23T12:28:57.901Z,15.40
2023-01-23T12:34:27.437Z,15.93
2023-01-23T12:39:50.278Z,16.07
2023-01-23T12:45:02.843Z,17.93
2023-01-23T12:50:18.117Z,17.80
2023-01-23T12:55:25.288Z,18.43
2023-01-23T13:00:44.602Z,20.60
2023-01-23T13:05:57.227Z,19.00
2023-01-23T13:11:23.053Z,19.17
2023-01-23T13:16:30.804Z,18.90
2023-01-23T13:21:51.030Z,19.93
2023-01-23T13:26:54.277Z,19.60
2023-01-23T13:32:21.188Z,19.73
2023-01-23T13:37:51.166Z,19.93
2023-01-23T13:42:54.326Z,20.50
2023-01-23T14:21:41.016Z,21.63
2023-01-23T14:26:50.773Z,22.20
2023-01-23T14:31:54.062Z,23.13
2023-01-23T14:37:03.990Z,24.20
2023-01-23T14:42:11.569Z,22.37
2023-01-23T14:47:28.234Z,23.37
2023-01-23T14:52:33.984Z,25.80
2023-01-23T14:57:39.629Z,27.03
2023-01-23T15:02:43.728Z,27.87
2023-01-23T15:07:50.111Z,24.90
2023-01-23T15:12:56.916Z,26.93
2023-01-23T15:18:01.628Z,26.63
2023-01-23T15:23:25.605Z,27.37
2023-01-23T15:28:32.036Z,27.87
2023-01-23T15:33:39.903Z,28.43
2023-01-23T15:38:48.901Z,30.10
2023-01-23T15:43:51.853Z,28.07
2023-01-23T15:48:55.144Z,25.33
2023-01-23T15:53:59.526Z,30.60
2023-01-23T15:59:02.835Z,29.27
2023-01-23T16:04:05.881Z,29.40
2023-01-23T16:09:18.808Z,31.47
2023-01-23T16:14:22.071Z,36.93
2023-01-23T16:19:25.041Z,28.90
2023-01-23T16:24:30.342Z,29.40
2023-01-23T16:29:35.028Z,30.00
2023-01-23T16:34:38.316Z,28.23
2023-01-23T16:39:44.330Z,27.63
2023-01-23T16:44:47.365Z,28.53
2023-01-23T16:49:53.274Z,27.73
2023-01-23T16:54:58.468Z,30.17
2023-01-23T17:00:01.501Z,30.67
2023-01-23T17:05:04.484Z,26.97
2023-01-23T17:10:14.236Z,28.83
2023-01-23T17:15:25.910Z,27.50
2023-01-23T17:20:29.832Z,31.50
2023-01-23T17:25:36.676Z,27.67
2023-01-23T17:30:43.268Z,27.67
2023-01-23T17:35:48.544Z,28.50
2023-01-23T17:40:54.849Z,27.20
2023-01-23T17:45:57.927Z,28.60
2023-01-23T17:51:01.005Z,26.07
2023-01-23T17:56:05.891Z,30.07
2023-01-23T18:01:18.755Z,26.50
2023-01-23T18:06:21.989Z,25.40
2023-01-23T18:11:27.671Z,26.93
2023-01-23T18:16:37.495Z,29.73
2023-01-23T18:21:40.917Z,27.57
2023-01-23T18:26:51.218Z,26.90
2023-01-23T18:32:13.410Z,26.80
2023-01-23T18:37:24.309Z,28.67
2023-01-23T18:42:35.771Z,26.70
2023-01-23T18:47:39.301Z,27.10
2023-01-23T18:52:51.074Z,30.23
2023-01-23T18:58:05.502Z,26.40
2023-01-23T19:03:14.381Z,27.00
2023-01-23T19:08:31.596Z,28.00
2023-01-23T19:13:43.866Z,28.13
2023-01-23T19:18:48.463Z,25.67
2023-01-23T19:23:57.233Z,27.63
2023-01-23T19:29:20.016Z,30.67
2023-01-23T19:34:24.460Z,27.13
2023-01-23T19:39:29.039Z,26.70
2023-01-23T19:44:33.658Z,27.47
2023-01-23T19:49:36.552Z,37.57
2023-01-23T19:54:39.454Z,29.30
2023-01-23T19:59:43.681Z,26.00
2023-01-23T20:04:47.151Z,24.93
2023-01-23T20:09:50.109Z,30.93
2023-01-23T20:14:56.847Z,26.13
2023-01-23T20:19:59.848Z,24.73
2023-01-23T20:25:02.806Z,25.10
2023-01-23T20:30:09.354Z,25.90
2023-01-23T20:35:12.851Z,28.00
2023-01-23T20:40:15.802Z,27.10
2023-01-23T20:45:20.553Z,26.33
2023-01-23T20:50:23.622Z,30.60
2023-01-23T20:55:26.500Z,28.13
2023-01-23T21:00:30.720Z,26.93
2023-01-23T21:05:33.565Z,26.10
2023-01-23T21:10:36.445Z,28.80
2023-01-23T21:15:40.689Z,27.80
2023-01-23T21:20:43.591Z,27.90
2023-01-23T21:25:46.731Z,26.50
2023-01-23T21:30:51.106Z,26.37
2023-01-23T21:35:55.482Z,26.50
2023-01-23T21:40:58.382Z,27.23
2023-01-23T21:46:02.759Z,28.50
2023-01-23T21:51:07.447Z,29.97
2023-01-23T21:56:11.507Z,27.77
2023-01-23T22:01:33.757Z,27.70
2023-01-23T22:06:38.583Z,28.37
2023-01-23T22:11:41.542Z,29.70
2023-01-23T22:16:48.909Z,28.83
2023-01-23T22:21:52.430Z,28.83
2023-01-23T22:26:55.353Z,29.10
2023-01-23T22:31:59.760Z,28.57
2023-01-23T22:37:02.720Z,29.17
2023-01-23T22:42:05.786Z,28.60
2023-01-23T22:47:10.110Z,28.70
2023-01-23T22:52:13.057Z,29.90
2023-01-23T22:57:15.955Z,31.27
2023-01-23T23:02:20.227Z,28.80
2023-01-23T23:07:23.084Z,29.60
2023-01-23T23:12:28.371Z,29.77
2023-01-23T23:17:32.648Z,28.60
2023-01-23T23:22:35.553Z,28.60
2023-01-23T23:27:39.108Z,29.60
2023-01-23T23:32:43.405Z,30.37
2023-01-23T23:37:46.427Z,29.77
2023-01-23T23:42:49.277Z,26.00
2023-01-23T23:47:54.998Z,27.87
2023-01-23T23:52:57.905Z,29.60
2023-01-23T23:58:00.807Z,28.87
